Time;durP1;ratioP1;P1;durP2;ratioP2;P2;SDS_P1;SDS_P2;PMS_P1;PMS_P2;Temp;Humidity;BMP_temperature;BMP_pressure;BME280_temperature;BME280_humidity;BME280_pressure;Samples;Min_cycle;Max_cycle;Signal;HPM_P1;HPM_P2
2023/04/16 00:00:06;;;;;;;1.48;0.98;;;23.40;44.70;;;;;;5037498;28;20029;-66
2023/04/16 00:02:32;;;;;;;1.20;0.80;;;23.40;44.70;;;;;;5039553;28;20108;-66
2023/04/16 00:04:58;;;;;;;1.73;0.85;;;23.40;44.70;;;;;;5039709;28;20109;-65
2023/04/16 00:07:24;;;;;;;2.30;1.45;;;23.40;44.70;;;;;;5037990;28;20083;-64
2023/04/16 00:09:50;;;;;;;1.52;1.10;;;23.40;44.70;;;;;;5038874;28;20508;-65
2023/04/16 00:12:15;;;;;;;1.23;0.80;;;23.40;44.70;;;;;;5038517;28;20033;-65
2023/04/16 00:14:42;;;;;;;1.23;0.80;;;23.30;44.70;;;;;;5045137;28;20036;-65
2023/04/16 00:17:11;;;;;;;1.75;1.00;;;23.40;44.80;;;;;;5041320;28;20074;-64
2023/04/16 00:19:37;;;;;;;1.05;0.80;;;23.30;44.80;;;;;;5038447;28;20029;-64
2023/04/16 00:22:02;;;;;;;1.23;0.80;;;23.30;44.80;;;;;;5041453;28;20055;-65
2023/04/16 00:24:28;;;;;;;1.52;0.90;;;23.30;44.80;;;;;;5043897;28;20032;-65
2023/04/16 00:26:54;;;;;;;1.10;0.90;;;23.30;44.80;;;;;;5041781;28;20041;-65
2023/04/16 00:29:20;;;;;;;1.40;0.88;;;23.30;44.80;;;;;;5040875;28;20040;-65
2023/04/16 00:31:46;;;;;;;1.40;0.80;;;23.30;44.80;;;;;;5042931;28;20033;-65
2023/04/16 00:34:11;;;;;;;1.02;0.80;;;23.20;44.80;;;;;;5042411;28;20025;-65
2023/04/16 00:36:37;;;;;;;0.90;0.70;;;23.20;44.80;;;;;;5041911;28;20053;-65
2023/04/16 00:39:03;;;;;;;1.40;0.70;;;23.20;44.80;;;;;;5039354;28;20028;-65
2023/04/16 00:41:28;;;;;;;0.95;0.80;;;23.20;44.80;;;;;;5040801;28;20036;-65
2023/04/16 00:43:54;;;;;;;1.20;0.82;;;23.20;44.80;;;;;;5037366;28;20028;-65
2023/04/16 00:46:22;;;;;;;0.73;0.73;;;23.20;44.90;;;;;;5038617;28;20362;-66
2023/04/16 00:48:48;;;;;;;1.10;0.80;;;23.20;44.90;;;;;;5039244;28;20029;-65
2023/04/16 00:51:14;;;;;;;1.83;0.80;;;23.10;44.80;;;;;;5039548;28;20437;-65
2023/04/16 00:53:41;;;;;;;1.02;0.80;;;23.10;44.80;;;;;;5039068;28;20474;-65
2023/04/16 00:56:07;;;;;;;0.80;0.73;;;23.10;44.90;;;;;;5045945;28;20035;-65
2023/04/16 00:58:34;;;;;;;0.60;0.60;;;23.10;44.90;;;;;;5040642;28;20041;-65
2023/04/16 01:01:00;;;;;;;0.73;0.70;;;23.10;44.90;;;;;;5049350;28;20033;-66
2023/04/16 01:03:38;;;;;;;0.80;0.70;;;23.10;44.90;;;;;;5045147;28;20507;-66
2023/04/16 01:06:08;;;;;;;1.10;0.90;;;23.10;44.90;;;;;;5040390;28;20025;-65
2023/04/16 01:08:33;;;;;;;1.02;0.70;;;23.10;44.90;;;;;;5037084;28;20111;-66
2023/04/16 01:10:59;;;;;;;1.23;0.70;;;23.00;44.90;;;;;;5039350;28;20200;-65
2023/04/16 01:13:25;;;;;;;1.02;0.70;;;23.00;44.90;;;;;;5042020;28;20051;-66
2023/04/16 01:15:51;;;;;;;0.90;0.70;;;23.00;44.90;;;;;;5043209;28;20029;-65
2023/04/16 01:18:18;;;;;;;0.77;0.60;;;23.00;44.90;;;;;;5041233;28;20503;-65
2023/04/16 01:20:45;;;;;;;0.70;0.68;;;23.00;45.00;;;;;;5043139;28;20033;-65
2023/04/16 01:23:10;;;;;;;0.93;0.70;;;23.00;45.00;;;;;;5043092;28;20504;-65
2023/04/16 01:25:36;;;;;;;0.73;0.60;;;22.90;44.90;;;;;;5043198;28;20030;-65
2023/04/16 01:28:02;;;;;;;0.70;0.60;;;22.90;45.00;;;;;;5042789;28;20044;-66
2023/04/16 01:30:28;;;;;;;0.70;0.60;;;22.90;45.00;;;;;;5041635;28;20025;-65
2023/04/16 01:32:53;;;;;;;0.55;0.55;;;22.90;45.00;;;;;;5041976;28;20031;-66
2023/04/16 01:35:19;;;;;;;0.93;0.60;;;22.90;45.00;;;;;;5043504;28;20496;-65
2023/04/16 01:37:45;;;;;;;1.02;0.70;;;22.90;45.00;;;;;;5044083;28;20037;-65
2023/04/16 01:40:10;;;;;;;0.80;0.70;;;22.90;45.00;;;;;;5043967;28;20029;-64
2023/04/16 01:42:37;;;;;;;0.45;0.45;;;22.90;45.00;;;;;;5037771;28;20025;-65
2023/04/16 01:45:03;;;;;;;0.50;0.50;;;22.90;45.00;;;;;;5040342;28;20025;-65
2023/04/16 01:47:29;;;;;;;1.02;0.73;;;22.90;45.10;;;;;;5039578;28;20033;-65
2023/04/16 01:49:55;;;;;;;0.82;0.60;;;22.90;45.10;;;;;;5043431;28;20093;-65
2023/04/16 01:52:20;;;;;;;0.63;0.60;;;22.80;45.00;;;;;;5041370;28;20373;-65
2023/04/16 01:54:46;;;;;;;0.90;0.52;;;22.80;45.10;;;;;;5042227;28;20025;-65
2023/04/16 01:57:12;;;;;;;0.90;0.70;;;22.80;45.10;;;;;;5040425;28;20025;-64
2023/04/16 01:59:38;;;;;;;0.70;0.52;;;22.80;45.00;;;;;;5038477;28;20396;-65
2023/04/16 02:02:11;;;;;;;0.98;0.90;;;22.80;45.10;;;;;;5040919;28;20025;-66
2023/04/16 02:04:38;;;;;;;0.50;0.50;;;22.80;45.10;;;;;;5044025;28;20084;-65
2023/04/16 02:07:04;;;;;;;0.90;0.70;;;22.70;45.00;;;;;;5039017;28;20037;-65
2023/04/16 02:09:30;;;;;;;0.80;0.60;;;22.80;45.10;;;;;;5043418;28;20445;-65
2023/04/16 02:11:56;;;;;;;0.82;0.60;;;22.80;45.10;;;;;;5038265;28;20036;-65
2023/04/16 02:14:24;;;;;;;0.70;0.60;;;22.70;45.10;;;;;;5042844;28;20030;-65
2023/04/16 02:16:50;;;;;;;0.57;0.57;;;22.70;45.10;;;;;;5041827;28;20013;-64
2023/04/16 02:19:16;;;;;;;0.88;0.68;;;22.70;45.10;;;;;;5042489;28;20027;-65
2023/04/16 02:21:42;;;;;;;0.88;0.60;;;22.70;45.10;;;;;;5043956;28;20104;-66
2023/04/16 02:24:07;;;;;;;0.50;0.50;;;22.70;45.10;;;;;;5039766;28;20032;-64
2023/04/16 02:26:33;;;;;;;1.95;0.68;;;22.70;45.10;;;;;;5035171;28;20030;-65
2023/04/16 02:28:59;;;;;;;0.57;0.52;;;22.70;45.10;;;;;;5038665;28;20025;-65
2023/04/16 02:31:25;;;;;;;0.50;0.50;;;22.70;45.10;;;;;;5041189;28;20034;-64
2023/04/16 02:33:50;;;;;;;2.15;0.80;;;22.70;45.10;;;;;;5043133;28;20025;-65
2023/04/16 02:36:16;;;;;;;0.68;0.50;;;22.70;45.10;;;;;;5046979;28;20486;-65
2023/04/16 02:38:42;;;;;;;0.60;0.60;;;22.60;45.10;;;;;;5039138;28;20389;-65
2023/04/16 02:41:07;;;;;;;0.60;0.50;;;22.60;45.10;;;;;;5039805;28;20032;-65
2023/04/16 02:43:33;;;;;;;0.50;0.50;;;22.60;45.10;;;;;;5035713;28;20033;-65
2023/04/16 02:45:58;;;;;;;1.40;0.70;;;22.60;45.10;;;;;;5038894;28;20029;-65
2023/04/16 02:48:24;;;;;;;0.70;0.70;;;22.60;45.10;;;;;;5040211;28;20059;-65
2023/04/16 02:50:50;;;;;;;0.55;0.55;;;22.60;45.10;;;;;;5040983;28;20477;-64
2023/04/16 02:53:15;;;;;;;0.63;0.60;;;22.60;45.20;;;;;;5040846;28;20521;-64
2023/04/16 02:55:45;;;;;;;0.60;0.60;;;22.60;45.20;;;;;;5039958;28;20519;-65
2023/04/16 02:58:11;;;;;;;0.60;0.55;;;22.60;45.20;;;;;;5038931;28;20060;-65
2023/04/16 03:00:37;;;;;;;0.82;0.60;;;22.60;45.20;;;;;;5040760;28;20056;-65
2023/04/16 03:03:02;;;;;;;0.73;0.50;;;22.60;45.20;;;;;;5039719;28;20068;-65
2023/04/16 03:05:28;;;;;;;0.65;0.60;;;22.50;45.10;;;;;;5041159;28;20025;-65
2023/04/16 03:07:55;;;;;;;0.40;0.40;;;22.60;45.20;;;;;;5040613;28;20102;-65
2023/04/16 03:10:21;;;;;;;0.70;0.50;;;22.50;45.10;;;;;;5042075;28;20116;-64
2023/04/16 03:12:46;;;;;;;0.57;0.40;;;22.50;45.10;;;;;;5042234;28;20539;-65
2023/04/16 03:15:12;;;;;;;0.85;0.60;;;22.50;45.10;;;;;;5039018;28;20381;-66
2023/04/16 03:17:37;;;;;;;0.77;0.50;;;22.50;45.20;;;;;;5040112;28;20067;-65
2023/04/16 03:20:04;;;;;;;0.43;0.43;;;22.50;45.20;;;;;;5040743;28;20033;-65
2023/04/16 03:22:29;;;;;;;0.88;0.50;;;22.50;45.20;;;;;;5039271;28;20477;-66
2023/04/16 03:24:55;;;;;;;0.43;0.43;;;22.50;45.20;;;;;;5036607;28;20108;-66
2023/04/16 03:27:21;;;;;;;0.52;0.45;;;22.50;45.20;;;;;;5040116;28;20036;-65
2023/04/16 03:29:46;;;;;;;0.60;0.50;;;22.50;45.20;;;;;;5039832;28;20021;-65
2023/04/16 03:32:12;;;;;;;0.50;0.50;;;22.50;45.70;;;;;;5039083;28;20026;-65
2023/04/16 03:34:38;;;;;;;0.40;0.40;;;22.40;45.20;;;;;;5040703;28;20028;-65
2023/04/16 03:37:04;;;;;;;0.40;0.40;;;22.50;45.30;;;;;;5039899;28;20034;-65
2023/04/16 03:39:31;;;;;;;0.50;0.50;;;22.50;45.30;;;;;;5041022;28;20672;-65
2023/04/16 03:41:56;;;;;;;0.50;0.50;;;22.40;45.30;;;;;;5039476;28;20044;-65
2023/04/16 03:44:22;;;;;;;0.73;0.60;;;22.40;45.30;;;;;;5038637;28;20477;-64
2023/04/16 03:46:47;;;;;;;0.93;0.50;;;22.40;45.20;;;;;;5038372;28;20100;-65
2023/04/16 03:49:13;;;;;;;0.55;0.50;;;22.40;45.30;;;;;;5040995;28;20024;-65
2023/04/16 03:51:38;;;;;;;0.30;0.30;;;22.40;45.20;;;;;;5039642;28;20036;-65
2023/04/16 03:54:04;;;;;;;0.77;0.60;;;22.40;45.30;;;;;;5043653;28;20045;-65
2023/04/16 03:56:30;;;;;;;0.45;0.45;;;22.40;45.30;;;;;;5040829;28;20575;-65
2023/04/16 03:58:55;;;;;;;0.77;0.50;;;22.40;45.30;;;;;;5039680;28;20021;-65
2023/04/16 04:01:21;;;;;;;0.50;0.50;;;22.40;45.30;;;;;;5039541;28;20127;-64
2023/04/16 04:03:46;;;;;;;0.50;0.50;;;22.40;45.30;;;;;;5040226;28;20041;-64
2023/04/16 04:06:12;;;;;;;0.50;0.50;;;22.40;45.30;;;;;;5040081;28;20029;-65
2023/04/16 04:08:38;;;;;;;0.77;0.60;;;22.40;45.40;;;;;;5041923;28;20065;-64
2023/04/16 04:11:03;;;;;;;0.68;0.52;;;22.40;45.40;;;;;;5038253;28;20025;-64
2023/04/16 04:13:29;;;;;;;0.70;0.60;;;22.30;45.30;;;;;;5036288;28;20029;-65
2023/04/16 04:15:54;;;;;;;0.40;0.40;;;22.30;45.40;;;;;;5039687;28;20124;-65
2023/04/16 04:18:20;;;;;;;0.47;0.47;;;22.40;45.40;;;;;;5039865;28;20373;-62
2023/04/16 04:20:45;;;;;;;0.40;0.40;;;22.30;45.40;;;;;;5038963;28;20079;-62
2023/04/16 04:23:11;;;;;;;0.43;0.40;;;22.30;45.40;;;;;;5040884;28;20381;-63
2023/04/16 04:25:37;;;;;;;0.43;0.43;;;22.30;45.40;;;;;;5039240;28;20040;-63
2023/04/16 04:28:02;;;;;;;0.43;0.40;;;22.30;45.40;;;;;;5038600;28;20037;-62
2023/04/16 04:30:28;;;;;;;0.70;0.50;;;22.30;45.40;;;;;;5039228;28;20025;-63
2023/04/16 04:32:53;;;;;;;1.33;0.50;;;22.30;45.40;;;;;;5040607;28;20111;-62
2023/04/16 04:35:19;;;;;;;0.40;0.40;;;22.30;45.40;;;;;;5039765;28;20024;-62
2023/04/16 04:37:45;;;;;;;0.50;0.50;;;22.20;45.40;;;;;;5040678;28;20489;-63
2023/04/16 04:40:11;;;;;;;0.85;0.40;;;22.20;45.40;;;;;;5037832;28;20064;-62
2023/04/16 04:42:37;;;;;;;0.50;0.50;;;22.30;45.50;;;;;;5047088;28;20496;-62
2023/04/16 04:45:03;;;;;;;0.50;0.50;;;22.20;45.40;;;;;;5038764;28;20044;-62
2023/04/16 04:47:29;;;;;;;0.43;0.40;;;22.20;45.40;;;;;;5036086;28;20502;-62
2023/04/16 04:49:54;;;;;;;0.50;0.50;;;22.20;45.50;;;;;;5037443;28;20037;-62
2023/04/16 04:52:20;;;;;;;0.60;0.40;;;22.20;45.50;;;;;;5041664;28;20280;-62
2023/04/16 04:54:46;;;;;;;0.50;0.50;;;22.20;45.50;;;;;;5038949;28;20021;-62
2023/04/16 04:57:11;;;;;;;0.40;0.40;;;22.20;45.50;;;;;;5038642;28;20064;-62
2023/04/16 04:59:37;;;;;;;0.70;0.50;;;22.20;45.50;;;;;;5037014;28;20028;-62
2023/04/16 05:02:02;;;;;;;0.63;0.50;;;22.20;45.50;;;;;;5037384;28;20474;-64
2023/04/16 05:04:30;;;;;;;0.50;0.50;;;22.20;45.50;;;;;;5037254;28;20036;-62
2023/04/16 05:06:55;;;;;;;0.60;0.50;;;22.20;45.50;;;;;;5037282;28;20086;-62
2023/04/16 05:09:21;;;;;;;0.50;0.50;;;22.20;45.50;;;;;;5038682;28;20414;-62
2023/04/16 05:11:46;;;;;;;0.40;0.40;;;22.20;45.50;;;;;;5042615;28;20032;-62
2023/04/16 05:14:12;;;;;;;0.60;0.50;;;22.20;45.50;;;;;;5038737;28;20029;-62
2023/04/16 05:16:37;;;;;;;0.82;0.50;;;22.20;45.50;;;;;;5042339;28;20057;-62
2023/04/16 05:19:03;;;;;;;0.40;0.40;;;22.10;45.50;;;;;;5046130;28;20431;-62
2023/04/16 05:21:29;;;;;;;0.60;0.50;;;22.10;45.50;;;;;;5044325;28;20961;-62
2023/04/16 05:23:55;;;;;;;0.60;0.52;;;22.10;45.50;;;;;;5038892;28;20354;-62
2023/04/16 05:26:21;;;;;;;0.30;0.30;;;22.10;45.50;;;;;;5043070;28;20119;-62
2023/04/16 05:28:47;;;;;;;0.50;0.40;;;22.10;45.60;;;;;;5042344;28;20033;-62
2023/04/16 05:31:13;;;;;;;0.40;0.40;;;22.10;45.60;;;;;;5036957;28;20048;-61
2023/04/16 05:33:38;;;;;;;0.50;0.50;;;22.10;45.50;;;;;;5043309;28;20100;-62
2023/04/16 05:36:04;;;;;;;0.47;0.45;;;22.10;45.50;;;;;;5043007;28;20182;-64
2023/04/16 05:38:30;;;;;;;0.57;0.40;;;22.10;45.60;;;;;;5042504;28;20028;-65
2023/04/16 05:40:57;;;;;;;0.80;0.52;;;22.10;45.60;;;;;;5041093;28;20039;-64
2023/04/16 05:43:23;;;;;;;0.40;0.40;;;22.10;45.60;;;;;;5042314;28;20029;-66
2023/04/16 05:45:48;;;;;;;0.47;0.40;;;22.10;45.60;;;;;;5042771;28;20044;-64
2023/04/16 05:48:14;;;;;;;0.40;0.40;;;22.10;45.60;;;;;;5041468;28;20029;-62
2023/04/16 05:50:40;;;;;;;0.50;0.50;;;22.10;45.60;;;;;;5040285;28;20021;-63
2023/04/16 05:53:07;;;;;;;0.43;0.43;;;22.10;45.60;;;;;;5037124;28;20082;-63
2023/04/16 05:55:34;;;;;;;0.60;0.50;;;22.10;46.20;;;;;;5045510;28;20025;-63
2023/04/16 05:58:03;;;;;;;0.45;0.30;;;22.10;45.70;;;;;;5041043;28;20029;-63
2023/04/16 06:00:29;;;;;;;0.50;0.45;;;22.10;45.70;;;;;;5039869;28;20028;-60
2023/04/16 06:02:54;;;;;;;1.05;0.57;;;22.10;45.70;;;;;;5040305;28;20556;-63
2023/04/16 06:05:20;;;;;;;0.68;0.45;;;22.10;45.70;;;;;;5041483;28;20074;-63
2023/04/16 06:07:46;;;;;;;0.55;0.43;;;22.10;45.70;;;;;;5036957;28;20030;-63
2023/04/16 06:10:12;;;;;;;0.50;0.50;;;22.00;45.60;;;;;;5038993;28;20120;-63
2023/04/16 06:12:37;;;;;;;0.43;0.43;;;22.00;45.60;;;;;;5042955;28;20036;-63
2023/04/16 06:15:04;;;;;;;0.52;0.50;;;22.00;45.60;;;;;;5039995;28;20025;-63
2023/04/16 06:17:29;;;;;;;0.50;0.50;;;22.00;45.70;;;;;;5040701;28;20129;-64
2023/04/16 06:19:55;;;;;;;0.40;0.40;;;22.00;45.70;;;;;;5039091;28;20112;-63
2023/04/16 06:22:21;;;;;;;0.30;0.30;;;22.00;45.70;;;;;;5039203;28;20021;-63
2023/04/16 06:24:46;;;;;;;0.55;0.50;;;22.00;45.80;;;;;;5041330;28;20029;-63
2023/04/16 06:27:12;;;;;;;0.35;0.30;;;22.00;45.70;;;;;;5039945;28;20037;-63
2023/04/16 06:29:37;;;;;;;0.47;0.32;;;22.00;45.80;;;;;;5038385;28;20390;-63
2023/04/16 06:32:03;;;;;;;0.60;0.40;;;22.00;45.80;;;;;;5042438;28;20044;-63
2023/04/16 06:34:30;;;;;;;0.50;0.47;;;22.00;45.80;;;;;;5039882;28;20100;-63
2023/04/16 06:36:56;;;;;;;0.32;0.32;;;22.00;45.80;;;;;;5043087;28;20021;-63
2023/04/16 06:39:21;;;;;;;0.50;0.50;;;22.00;45.80;;;;;;5039579;28;20050;-63
2023/04/16 06:41:48;;;;;;;0.57;0.40;;;22.00;45.80;;;;;;5038577;28;20021;-63
2023/04/16 06:44:13;;;;;;;0.28;0.28;;;22.00;45.80;;;;;;5039410;28;20101;-62
2023/04/16 06:46:39;;;;;;;0.50;0.50;;;22.00;45.80;;;;;;5038208;28;20431;-62
2023/04/16 06:49:06;;;;;;;0.57;0.43;;;22.00;45.80;;;;;;5040466;28;20484;-63
2023/04/16 06:51:32;;;;;;;0.38;0.38;;;22.00;45.80;;;;;;5041426;28;20491;-63
2023/04/16 06:53:57;;;;;;;0.50;0.47;;;22.00;45.80;;;;;;5040147;28;20036;-63
2023/04/16 06:56:23;;;;;;;0.40;0.40;;;22.00;45.80;;;;;;5039338;28;20025;-63
2023/04/16 06:58:49;;;;;;;0.75;0.60;;;21.90;45.80;;;;;;5038237;28;20032;-63
2023/04/16 07:01:16;;;;;;;0.73;0.55;;;22.00;45.80;;;;;;5039040;28;20048;-63
2023/04/16 07:03:42;;;;;;;0.40;0.40;;;21.90;45.80;;;;;;5038590;28;20436;-63
2023/04/16 07:06:07;;;;;;;0.70;0.50;;;22.00;45.90;;;;;;5035337;28;20037;-63
2023/04/16 07:08:33;;;;;;;0.40;0.40;;;21.90;45.90;;;;;;5038658;28;20469;-63
2023/04/16 07:10:58;;;;;;;0.65;0.45;;;21.90;45.80;;;;;;5043621;28;20036;-63
2023/04/16 07:13:24;;;;;;;0.70;0.50;;;21.90;45.80;;;;;;5039719;28;20029;-63
2023/04/16 07:15:50;;;;;;;0.40;0.40;;;21.90;45.80;;;;;;5038880;28;20464;-63
2023/04/16 07:18:16;;;;;;;0.40;0.40;;;21.90;45.80;;;;;;5041438;28;20025;-63
2023/04/16 07:20:41;;;;;;;0.73;0.50;;;21.90;45.80;;;;;;5037100;28;20029;-63
2023/04/16 07:23:07;;;;;;;0.85;0.50;;;21.90;45.90;;;;;;5043706;28;20108;-63
2023/04/16 07:25:33;;;;;;;0.50;0.50;;;21.90;45.90;;;;;;5039565;28;20025;-63
2023/04/16 07:27:58;;;;;;;0.40;0.40;;;21.90;45.80;;;;;;5041315;28;20041;-63
2023/04/16 07:30:24;;;;;;;0.75;0.65;;;21.90;45.90;;;;;;5041015;28;21300;-63
2023/04/16 07:32:50;;;;;;;0.85;0.50;;;21.90;45.90;;;;;;5040189;28;20122;-63
2023/04/16 07:35:16;;;;;;;0.50;0.50;;;21.90;45.80;;;;;;5039095;28;20031;-63
2023/04/16 07:37:41;;;;;;;0.52;0.50;;;21.90;45.90;;;;;;5038836;28;20026;-64
2023/04/16 07:40:08;;;;;;;0.47;0.47;;;21.90;45.80;;;;;;5041089;28;20033;-62
2023/04/16 07:42:34;;;;;;;0.70;0.43;;;21.90;45.90;;;;;;5040043;28;20391;-64
2023/04/16 07:44:59;;;;;;;0.40;0.40;;;21.90;45.80;;;;;;5039022;28;20439;-63
2023/04/16 07:47:25;;;;;;;0.50;0.50;;;21.90;45.90;;;;;;5038446;28;20029;-63
2023/04/16 07:49:52;;;;;;;0.57;0.50;;;21.90;45.90;;;;;;5038177;28;20099;-63
2023/04/16 07:52:18;;;;;;;0.57;0.57;;;21.90;45.90;;;;;;5040586;28;20025;-63
2023/04/16 07:54:44;;;;;;;1.02;0.60;;;21.90;45.90;;;;;;5040126;28;20531;-63
2023/04/16 07:57:11;;;;;;;0.60;0.60;;;21.90;46.50;;;;;;5038626;28;20096;-63
2023/04/16 07:59:36;;;;;;;0.50;0.50;;;21.90;45.90;;;;;;5038711;28;20040;-63
2023/04/16 08:02:03;;;;;;;0.55;0.50;;;21.90;45.90;;;;;;5036939;28;20042;-63
2023/04/16 08:04:28;;;;;;;1.15;0.55;;;21.90;45.90;;;;;;5037957;28;20033;-63
2023/04/16 08:06:54;;;;;;;0.73;0.50;;;21.90;46.00;;;;;;5038596;28;20439;-63
2023/04/16 08:09:26;;;;;;;0.55;0.47;;;21.90;46.00;;;;;;5038699;28;20021;-63
2023/04/16 08:11:51;;;;;;;0.70;0.60;;;21.90;46.00;;;;;;5040252;28;20045;-63
2023/04/16 08:14:17;;;;;;;1.08;0.57;;;21.90;46.00;;;;;;5036240;28;20486;-63
2023/04/16 08:16:43;;;;;;;1.05;0.60;;;21.80;45.90;;;;;;5039332;28;20040;-63
2023/04/16 08:19:08;;;;;;;0.50;0.50;;;21.90;46.00;;;;;;5038718;28;20036;-63
2023/04/16 08:21:34;;;;;;;0.65;0.50;;;21.80;46.00;;;;;;5039074;28;20075;-63
2023/04/16 08:23:59;;;;;;;0.50;0.50;;;21.80;46.00;;;;;;5039819;28;20108;-63
2023/04/16 08:26:26;;;;;;;1.10;0.70;;;21.80;46.00;;;;;;5036531;28;20498;-63
2023/04/16 08:28:51;;;;;;;0.70;0.50;;;21.80;46.00;;;;;;5036798;28;20084;-63
2023/04/16 08:31:17;;;;;;;0.60;0.60;;;21.80;46.00;;;;;;5033860;28;20357;-63
2023/04/16 08:33:42;;;;;;;0.52;0.50;;;21.80;46.00;;;;;;5039444;28;20064;-63
2023/04/16 08:36:08;;;;;;;0.55;0.50;;;21.80;46.00;;;;;;5037162;28;20021;-63
2023/04/16 08:38:34;;;;;;;0.75;0.60;;;21.80;46.00;;;;;;5035986;28;20051;-63
2023/04/16 08:41:04;;;;;;;0.85;0.57;;;21.80;46.00;;;;;;5039556;28;20025;-63
2023/04/16 08:43:33;;;;;;;1.35;0.50;;;21.80;46.00;;;;;;5041528;28;20607;-63
2023/04/16 08:46:00;;;;;;;0.63;0.55;;;21.80;46.10;;;;;;5039165;28;20587;-63
2023/04/16 08:48:31;;;;;;;0.60;0.60;;;21.80;46.10;;;;;;5041576;28;20033;-63
2023/04/16 08:50:59;;;;;;;0.80;0.60;;;21.80;46.10;;;;;;5040126;28;20116;-63
2023/04/16 08:53:34;;;;;;;0.60;0.60;;;21.80;46.00;;;;;;5040142;28;20513;-63
2023/04/16 08:56:03;;;;;;;0.52;0.52;;;21.80;46.00;;;;;;5042656;28;20025;-63
2023/04/16 08:58:30;;;;;;;;;;;21.80;46.10;;;;;;5042678;28;20025;-63
2023/04/16 09:00:56;;;;;;;1.10;0.68;;;21.80;46.10;;;;;;5038141;28;19919;-63
2023/04/16 09:03:22;;;;;;;1.10;0.68;;;21.80;46.10;;;;;;5043665;28;20021;-62
2023/04/16 09:05:49;;;;;;;0.70;0.50;;;21.80;46.10;;;;;;5045891;28;20032;-63
2023/04/16 09:08:16;;;;;;;0.60;0.60;;;21.80;46.10;;;;;;5040976;28;20112;-62
2023/04/16 09:10:42;;;;;;;0.60;0.60;;;21.80;46.10;;;;;;5044455;28;20036;-63
2023/04/16 09:13:10;;;;;;;0.80;0.70;;;21.80;46.20;;;;;;5042209;28;20507;-63
2023/04/16 09:15:36;;;;;;;0.82;0.60;;;21.80;46.10;;;;;;5039439;28;20029;-63
2023/04/16 09:18:02;;;;;;;0.93;0.47;;;21.80;46.10;;;;;;5042270;28;20032;-63
2023/04/16 09:20:27;;;;;;;0.40;0.40;;;21.80;46.10;;;;;;5042628;28;20025;-63
2023/04/16 09:22:53;;;;;;;0.77;0.50;;;21.80;46.10;;;;;;5040258;28;20058;-63
2023/04/16 09:25:21;;;;;;;1.85;0.68;;;21.80;46.10;;;;;;5040854;28;20463;-63
2023/04/16 09:27:49;;;;;;;1.05;0.50;;;21.80;46.10;;;;;;5040703;28;20025;-63
2023/04/16 09:30:21;;;;;;;0.50;0.50;;;21.80;46.10;;;;;;5042158;28;20119;-63
2023/04/16 09:32:48;;;;;;;0.95;0.70;;;21.80;46.10;;;;;;5055219;28;20037;-63
2023/04/16 09:35:14;;;;;;;0.60;0.50;;;21.70;46.10;;;;;;5041020;28;20707;-63
2023/04/16 09:37:40;;;;;;;0.82;0.55;;;21.80;46.20;;;;;;5042973;28;20086;-63
2023/04/16 09:40:06;;;;;;;0.52;0.50;;;21.80;46.10;;;;;;5039568;28;20029;-63
2023/04/16 09:42:35;;;;;;;1.17;0.70;;;21.80;46.20;;;;;;5037023;28;20022;-62
2023/04/16 09:45:01;;;;;;;0.85;0.65;;;21.80;46.20;;;;;;5043168;28;20370;-63
2023/04/16 09:47:39;;;;;;;0.52;0.50;;;21.70;46.10;;;;;;5040993;28;20043;-63
2023/04/16 09:50:06;;;;;;;0.60;0.50;;;21.70;46.10;;;;;;5039548;28;20025;-63
2023/04/16 09:52:39;;;;;;;0.55;0.50;;;21.70;46.10;;;;;;5045826;28;20029;-63
2023/04/16 09:55:05;;;;;;;1.05;0.63;;;21.70;46.10;;;;;;5042609;28;20032;-63
2023/04/16 09:57:30;;;;;;;0.82;0.50;;;21.70;46.10;;;;;;5039423;28;20378;-63
2023/04/16 10:00:05;;;;;;;0.50;0.50;;;21.70;46.10;;;;;;5042161;28;20136;-63
2023/04/16 10:02:32;;;;;;;1.00;0.65;;;21.80;46.20;;;;;;5039537;28;20064;-63
2023/04/16 10:05:00;;;;;;;0.60;0.60;;;21.80;46.20;;;;;;5037559;28;20389;-62
2023/04/16 10:07:33;;;;;;;0.80;0.60;;;21.70;46.10;;;;;;5041364;28;20029;-63
2023/04/16 10:09:59;;;;;;;0.93;0.60;;;21.70;46.10;;;;;;5042304;28;20025;-63
2023/04/16 10:12:26;;;;;;;0.77;0.60;;;21.70;46.10;;;;;;5040065;28;20029;-63
2023/04/16 10:14:51;;;;;;;1.48;0.70;;;21.70;46.10;;;;;;5042006;28;20417;-63
2023/04/16 10:17:18;;;;;;;2.15;0.63;;;21.70;46.10;;;;;;5039801;28;20021;-63
2023/04/16 10:19:44;;;;;;;1.33;0.70;;;21.80;46.20;;;;;;5040785;28;20459;-63
2023/04/16 10:22:10;;;;;;;1.30;0.70;;;21.70;46.10;;;;;;5039061;28;20436;-63
2023/04/16 10:24:35;;;;;;;1.70;0.75;;;21.70;46.10;;;;;;5039270;28;20099;-63
2023/04/16 10:27:01;;;;;;;0.77;0.60;;;21.70;46.10;;;;;;5039399;28;20034;-62
2023/04/16 10:29:29;;;;;;;1.13;0.70;;;21.70;46.10;;;;;;5042852;28;20104;-63
2023/04/16 10:31:56;;;;;;;1.38;0.70;;;21.70;46.10;;;;;;5039560;28;20039;-63
2023/04/16 10:34:23;;;;;;;0.63;0.60;;;21.70;46.10;;;;;;5043706;28;20032;-62
2023/04/16 10:36:51;;;;;;;1.08;0.70;;;21.70;46.10;;;;;;5041298;28;20052;-63
2023/04/16 10:39:26;;;;;;;1.50;0.80;;;21.70;46.10;;;;;;5041156;28;20017;-63
2023/04/16 10:42:11;;;;;;;0.70;0.68;;;21.70;46.10;;;;;;5037924;28;20036;-63
2023/04/16 10:44:39;;;;;;;0.80;0.60;;;21.70;46.10;;;;;;5037795;28;20487;-63
2023/04/16 10:47:12;;;;;;;1.35;0.70;;;21.70;46.10;;;;;;5037356;28;20030;-63
2023/04/16 10:49:37;;;;;;;0.50;0.50;;;21.70;46.10;;;;;;5042327;28;20079;-63
2023/04/16 10:52:11;;;;;;;0.65;0.50;;;21.70;46.10;;;;;;5044449;28;20428;-63
2023/04/16 10:54:37;;;;;;;1.02;0.70;;;21.70;46.10;;;;;;5039336;28;20020;-63
2023/04/16 10:57:04;;;;;;;0.98;0.60;;;21.70;46.10;;;;;;5041600;28;20100;-63
2023/04/16 10:59:33;;;;;;;1.10;0.70;;;21.70;46.10;;;;;;5040298;28;20025;-63
2023/04/16 11:02:00;;;;;;;0.88;0.60;;;21.80;46.10;;;;;;5039606;28;20064;-63
2023/04/16 11:04:29;;;;;;;1.00;0.60;;;21.70;46.10;;;;;;5043108;28;20112;-64
2023/04/16 11:07:02;;;;;;;1.77;0.70;;;21.70;46.10;;;;;;5039340;28;20025;-65
2023/04/16 11:09:45;;;;;;;1.02;0.80;;;21.70;46.10;;;;;;5043240;28;20022;-64
2023/04/16 11:12:19;;;;;;;1.27;0.85;;;21.70;46.10;;;;;;5040728;28;20477;-64
2023/04/16 11:14:48;;;;;;;0.80;0.60;;;21.70;46.10;;;;;;5040526;28;20112;-63
2023/04/16 11:17:13;;;;;;;0.70;0.60;;;21.70;46.10;;;;;;5040302;28;20010;-65
2023/04/16 11:19:41;;;;;;;0.70;0.60;;;21.70;46.10;;;;;;5041011;28;20461;-64
2023/04/16 11:22:07;;;;;;;0.75;0.60;;;21.70;46.10;;;;;;5039257;28;20586;-63
2023/04/16 11:24:34;;;;;;;0.90;0.65;;;21.70;46.10;;;;;;5041661;28;20029;-64
2023/04/16 11:27:00;;;;;;;1.38;0.90;;;21.70;46.10;;;;;;5040237;28;20033;-64
2023/04/16 11:29:26;;;;;;;1.13;0.70;;;21.70;46.10;;;;;;5039722;28;20036;-66
2023/04/16 11:31:53;;;;;;;0.80;0.60;;;21.70;46.10;;;;;;5038953;28;20029;-64
2023/04/16 11:34:19;;;;;;;0.88;0.65;;;21.70;46.10;;;;;;5039018;28;20032;-64
2023/04/16 11:36:50;;;;;;;0.70;0.70;;;21.70;46.10;;;;;;5037460;28;20026;-64
2023/04/16 11:39:16;;;;;;;1.08;0.68;;;21.70;46.10;;;;;;5044726;28;20496;-63
2023/04/16 11:41:49;;;;;;;1.00;0.80;;;21.70;46.10;;;;;;5038280;28;20068;-63
2023/04/16 11:44:26;;;;;;;0.90;0.60;;;21.70;46.10;;;;;;5039068;28;20027;-64
2023/04/16 11:46:53;;;;;;;1.30;0.70;;;21.70;46.10;;;;;;5039801;28;20033;-64
2023/04/16 11:49:29;;;;;;;0.80;0.60;;;21.70;46.10;;;;;;5036318;28;20033;-63
2023/04/16 11:51:56;;;;;;;1.00;0.70;;;21.70;46.10;;;;;;5038261;28;20072;-64
2023/04/16 11:54:23;;;;;;;1.05;0.70;;;21.70;46.10;;;;;;5045040;28;20469;-64
2023/04/16 11:56:52;;;;;;;0.65;0.60;;;21.70;46.20;;;;;;5040024;28;20071;-62
2023/04/16 11:59:20;;;;;;;1.40;0.70;;;21.70;46.20;;;;;;5038086;28;20115;-63
2023/04/16 12:01:50;;;;;;;0.88;0.60;;;21.70;46.20;;;;;;5036231;28;20374;-62
2023/04/16 12:04:19;;;;;;;0.88;0.70;;;21.70;46.20;;;;;;5035888;28;20587;-63
2023/04/16 12:07:09;;;;;;;0.95;0.60;;;21.70;46.20;;;;;;5036541;28;20025;-62
2023/04/16 12:09:36;;;;;;;0.68;0.55;;;21.70;46.20;;;;;;5038019;28;20373;-65
2023/04/16 12:12:03;;;;;;;1.00;0.70;;;21.70;46.20;;;;;;5038856;28;20036;-64
2023/04/16 12:14:29;;;;;;;0.80;0.60;;;21.70;46.20;;;;;;5040440;28;20385;-64
2023/04/16 12:16:55;;;;;;;0.82;0.68;;;21.70;46.20;;;;;;5037898;28;20362;-63
2023/04/16 12:19:21;;;;;;;1.00;0.60;;;21.70;46.20;;;;;;5036935;28;20026;-63
2023/04/16 12:21:49;;;;;;;1.13;0.63;;;21.70;46.20;;;;;;5037686;28;20392;-63
2023/04/16 12:24:19;;;;;;;0.55;0.50;;;21.70;46.20;;;;;;5039126;28;20495;-63
2023/04/16 12:26:47;;;;;;;1.00;0.70;;;21.70;46.20;;;;;;5002348;28;1093773;-64
2023/04/16 12:29:21;;;;;;;0.57;0.57;;;21.70;46.20;;;;;;5038948;28;20035;-64
2023/04/16 12:31:48;;;;;;;1.73;0.60;;;21.60;46.20;;;;;;5039606;28;20021;-64
2023/04/16 12:34:14;;;;;;;1.25;0.63;;;21.70;46.30;;;;;;5036660;28;20028;-64
2023/04/16 12:36:41;;;;;;;0.77;0.70;;;21.70;46.20;;;;;;5040512;28;20504;-64
2023/04/16 12:39:07;;;;;;;0.75;0.60;;;21.70;46.20;;;;;;5035668;28;20190;-63
2023/04/16 12:41:36;;;;;;;0.70;0.60;;;21.70;46.30;;;;;;5039302;28;20105;-64
2023/04/16 12:44:10;;;;;;;1.55;0.75;;;21.60;46.20;;;;;;5039570;28;20124;-64